Saint-Pierre, Canada
Current Conditions -  °F | °C
As of 9:00 AM on Thursday 27 Nov 2014 (Local Time) from CYUL Reporting Station
Broken Clouds Broken Clouds  
Wind Chill: 19°   Ceiling: 3200
Heat Index: 28°   Visibility: 15mi
Dew Point: 16°   Wind: 10mph
Humidity: 59%   Direction: 20°NNE
Pressure: 30.04"   Gusts: NA
Location:  45.43°N, 73.65°W
Report Text: CYUL 271400Z 02009KT 15SM BKN032 M02/M09 A3004 RMK SC7 SLP176
Loading
Personal Weather Stations






























Interactive Weather Map New forecast layout! Learn more

10-Day Weather Forecast

Advertisements
Track Severe Weather on mobile